sensor_id;sensor_type;location;lat;lon;timestamp;pressure;altitude;pressure_sealevel;temperature;humidity
53908;BME280;40469;47.998;7.794;2023-01-10T00:01:42;98905.47;;;4.37;100.00
53908;BME280;40469;47.998;7.794;2023-01-10T00:04:07;98914.09;;;4.37;100.00
53908;BME280;40469;47.998;7.794;2023-01-10T00:06:33;98911.72;;;4.53;100.00
53908;BME280;40469;47.998;7.794;2023-01-10T00:08:58;98926.31;;;4.48;100.00
53908;BME280;40469;47.998;7.794;2023-01-10T00:11:23;98935.03;;;4.54;100.00
53908;BME280;40469;47.998;7.794;2023-01-10T00:14:07;98932.22;;;4.39;100.00
53908;BME280;40469;47.998;7.794;2023-01-10T00:16:32;98942.66;;;4.45;100.00
53908;BME280;40469;47.998;7.794;2023-01-10T00:18:57;98946.22;;;4.55;100.00
53908;BME280;40469;47.998;7.794;2023-01-10T00:21:23;98953.00;;;4.45;100.00
53908;BME280;40469;47.998;7.794;2023-01-10T00:23:48;98959.06;;;4.49;100.00
53908;BME280;40469;47.998;7.794;2023-01-10T00:26:13;98965.81;;;4.39;100.00
53908;BME280;40469;47.998;7.794;2023-01-10T00:28:38;98970.34;;;4.54;100.00
53908;BME280;40469;47.998;7.794;2023-01-10T00:31:04;98987.38;;;4.40;100.00
53908;BME280;40469;47.998;7.794;2023-01-10T00:33:30;98986.69;;;4.51;100.00
53908;BME280;40469;47.998;7.794;2023-01-10T00:35:56;98996.09;;;4.45;100.00
53908;BME280;40469;47.998;7.794;2023-01-10T00:38:22;98997.72;;;4.41;100.00
53908;BME280;40469;47.998;7.794;2023-01-10T00:40:47;98999.47;;;4.42;100.00
53908;BME280;40469;47.998;7.794;2023-01-10T00:43:12;99002.69;;;4.29;100.00
53908;BME280;40469;47.998;7.794;2023-01-10T00:45:56;99006.94;;;4.25;100.00
53908;BME280;40469;47.998;7.794;2023-01-10T00:48:22;99011.34;;;4.29;100.00
53908;BME280;40469;47.998;7.794;2023-01-10T00:50:47;99023.31;;;4.24;100.00
53908;BME280;40469;47.998;7.794;2023-01-10T00:53:12;99021.53;;;4.22;100.00
53908;BME280;40469;47.998;7.794;2023-01-10T00:55:37;99020.72;;;4.24;100.00
53908;BME280;40469;47.998;7.794;2023-01-10T00:58:04;99030.94;;;4.18;100.00
53908;BME280;40469;47.998;7.794;2023-01-10T01:00:29;99043.78;;;4.12;100.00
53908;BME280;40469;47.998;7.794;2023-01-10T01:02:55;99042.00;;;4.08;100.00
53908;BME280;40469;47.998;7.794;2023-01-10T01:05:20;99058.50;;;4.16;100.00
53908;BME280;40469;47.998;7.794;2023-01-10T01:07:46;99063.84;;;4.27;100.00
53908;BME280;40469;47.998;7.794;2023-01-10T01:10:12;99075.88;;;4.25;100.00
53908;BME280;40469;47.998;7.794;2023-01-10T01:12:52;99066.41;;;4.24;100.00
53908;BME280;40469;47.998;7.794;2023-01-10T01:15:18;99069.59;;;4.10;100.00
53908;BME280;40469;47.998;7.794;2023-01-10T01:17:43;99081.78;;;4.17;100.00
53908;BME280;40469;47.998;7.794;2023-01-10T01:20:09;99079.13;;;4.14;100.00
53908;BME280;40469;47.998;7.794;2023-01-10T01:22:34;99085.91;;;4.06;100.00
53908;BME280;40469;47.998;7.794;2023-01-10T01:25:00;99087.81;;;4.18;100.00
53908;BME280;40469;47.998;7.794;2023-01-10T01:27:25;99090.41;;;4.20;100.00
53908;BME280;40469;47.998;7.794;2023-01-10T01:29:50;99094.81;;;4.25;100.00
53908;BME280;40469;47.998;7.794;2023-01-10T01:32:16;99110.28;;;4.22;100.00
53908;BME280;40469;47.998;7.794;2023-01-10T01:34:41;99124.22;;;4.32;100.00
53908;BME280;40469;47.998;7.794;2023-01-10T01:37:07;99127.75;;;4.35;100.00
53908;BME280;40469;47.998;7.794;2023-01-10T01:39:32;99125.09;;;4.31;100.00
53908;BME280;40469;47.998;7.794;2023-01-10T01:41:57;99137.31;;;4.40;100.00
53908;BME280;40469;47.998;7.794;2023-01-10T01:44:23;99148.50;;;4.39;100.00
53908;BME280;40469;47.998;7.794;2023-01-10T01:46:51;99155.25;;;4.32;100.00
53908;BME280;40469;47.998;7.794;2023-01-10T01:49:21;99169.00;;;4.29;100.00
53908;BME280;40469;47.998;7.794;2023-01-10T01:51:48;99173.50;;;4.40;100.00
53908;BME280;40469;47.998;7.794;2023-01-10T01:54:15;99178.63;;;4.36;100.00
53908;BME280;40469;47.998;7.794;2023-01-10T01:59:13;99178.69;;;4.41;100.00
53908;BME280;40469;47.998;7.794;2023-01-10T02:01:40;99179.63;;;4.46;100.00
53908;BME280;40469;47.998;7.794;2023-01-10T02:04:10;99179.56;;;4.42;100.00
53908;BME280;40469;47.998;7.794;2023-01-10T02:06:35;99187.28;;;4.40;100.00
53908;BME280;40469;47.998;7.794;2023-01-10T02:09:09;99208.81;;;4.39;100.00
53908;BME280;40469;47.998;7.794;2023-01-10T02:11:38;99197.69;;;4.43;100.00
53908;BME280;40469;47.998;7.794;2023-01-10T02:14:04;99212.34;;;4.44;100.00
53908;BME280;40469;47.998;7.794;2023-01-10T02:16:30;99220.16;;;4.47;100.00
53908;BME280;40469;47.998;7.794;2023-01-10T02:18:56;99227.06;;;4.47;100.00
53908;BME280;40469;47.998;7.794;2023-01-10T02:21:29;99229.63;;;4.45;100.00
53908;BME280;40469;47.998;7.794;2023-01-10T02:34:55;99246.66;;;4.35;100.00
53908;BME280;40469;47.998;7.794;2023-01-10T02:39:57;99258.75;;;4.36;100.00
53908;BME280;40469;47.998;7.794;2023-01-10T02:42:30;99250.81;;;4.29;100.00
53908;BME280;40469;47.998;7.794;2023-01-10T02:45:09;99257.50;;;4.17;100.00
53908;BME280;40469;47.998;7.794;2023-01-10T02:47:37;99267.88;;;4.19;100.00
53908;BME280;40469;47.998;7.794;2023-01-10T02:50:21;99269.41;;;4.11;100.00
53908;BME280;40469;47.998;7.794;2023-01-10T02:52:48;99272.94;;;4.14;100.00
53908;BME280;40469;47.998;7.794;2023-01-10T02:55:14;99277.13;;;4.08;100.00
53908;BME280;40469;47.998;7.794;2023-01-10T02:57:43;99281.31;;;4.03;100.00
53908;BME280;40469;47.998;7.794;2023-01-10T03:07:55;99298.47;;;4.01;100.00
53908;BME280;40469;47.998;7.794;2023-01-10T03:10:29;99299.09;;;3.89;100.00
53908;BME280;40469;47.998;7.794;2023-01-10T03:13:05;99300.19;;;4.00;100.00
53908;BME280;40469;47.998;7.794;2023-01-10T03:15:35;99300.91;;;3.93;100.00
53908;BME280;40469;47.998;7.794;2023-01-10T03:18:01;99306.81;;;3.87;100.00
53908;BME280;40469;47.998;7.794;2023-01-10T03:20:28;99311.44;;;4.02;100.00
53908;BME280;40469;47.998;7.794;2023-01-10T03:22:56;99319.78;;;3.90;100.00
53908;BME280;40469;47.998;7.794;2023-01-10T03:25:22;99325.72;;;3.86;100.00
53908;BME280;40469;47.998;7.794;2023-01-10T03:27:54;99340.47;;;3.90;100.00
53908;BME280;40469;47.998;7.794;2023-01-10T03:30:37;99335.53;;;4.01;100.00
53908;BME280;40469;47.998;7.794;2023-01-10T03:33:04;99346.66;;;3.98;100.00
53908;BME280;40469;47.998;7.794;2023-01-10T03:35:43;99354.31;;;3.94;100.00
53908;BME280;40469;47.998;7.794;2023-01-10T03:38:20;99361.13;;;3.90;100.00
53908;BME280;40469;47.998;7.794;2023-01-10T03:43:17;99365.91;;;3.75;100.00
53908;BME280;40469;47.998;7.794;2023-01-10T03:46:05;99369.31;;;3.74;100.00
53908;BME280;40469;47.998;7.794;2023-01-10T03:48:35;99362.44;;;3.73;100.00
53908;BME280;40469;47.998;7.794;2023-01-10T03:51:01;99375.59;;;3.84;100.00
53908;BME280;40469;47.998;7.794;2023-01-10T03:53:28;99374.66;;;3.80;100.00
53908;BME280;40469;47.998;7.794;2023-01-10T03:55:53;99378.97;;;3.79;100.00
53908;BME280;40469;47.998;7.794;2023-01-10T03:58:18;99387.38;;;3.72;100.00
53908;BME280;40469;47.998;7.794;2023-01-10T04:00:46;99381.41;;;3.75;100.00
53908;BME280;40469;47.998;7.794;2023-01-10T04:03:11;99385.16;;;3.88;100.00
53908;BME280;40469;47.998;7.794;2023-01-10T04:05:36;99387.50;;;3.77;100.00
53908;BME280;40469;47.998;7.794;2023-01-10T04:08:02;99390.16;;;3.80;100.00
53908;BME280;40469;47.998;7.794;2023-01-10T04:10:27;99397.81;;;3.77;100.00
53908;BME280;40469;47.998;7.794;2023-01-10T04:12:53;99391.06;;;3.82;100.00
53908;BME280;40469;47.998;7.794;2023-01-10T04:15:19;99385.50;;;3.67;100.00
53908;BME280;40469;47.998;7.794;2023-01-10T04:17:44;99390.22;;;3.83;100.00
53908;BME280;40469;47.998;7.794;2023-01-10T04:20:10;99386.41;;;3.69;100.00
53908;BME280;40469;47.998;7.794;2023-01-10T04:22:35;99388.09;;;3.67;100.00
53908;BME280;40469;47.998;7.794;2023-01-10T04:25:00;99397.91;;;3.80;100.00
53908;BME280;40469;47.998;7.794;2023-01-10T04:27:25;99391.84;;;3.78;100.00
53908;BME280;40469;47.998;7.794;2023-01-10T04:29:51;99396.75;;;3.67;100.00
53908;BME280;40469;47.998;7.794;2023-01-10T04:32:18;99412.25;;;3.69;100.00
53908;BME280;40469;47.998;7.794;2023-01-10T04:34:44;99419.28;;;3.74;100.00
53908;BME280;40469;47.998;7.794;2023-01-10T04:37:09;99416.81;;;3.79;100.00
53908;BME280;40469;47.998;7.794;2023-01-10T04:39:34;99420.13;;;3.73;100.00
53908;BME280;40469;47.998;7.794;2023-01-10T04:41:59;99418.56;;;3.80;100.00
53908;BME280;40469;47.998;7.794;2023-01-10T04:44:25;99428.69;;;3.72;100.00
53908;BME280;40469;47.998;7.794;2023-01-10T04:46:50;99433.94;;;3.75;100.00
53908;BME280;40469;47.998;7.794;2023-01-10T04:49:15;99435.59;;;3.73;100.00
53908;BME280;40469;47.998;7.794;2023-01-10T04:51:40;99442.63;;;3.79;100.00
53908;BME280;40469;47.998;7.794;2023-01-10T04:54:05;99449.50;;;3.78;100.00
53908;BME280;40469;47.998;7.794;2023-01-10T04:56:31;99457.47;;;3.88;100.00
53908;BME280;40469;47.998;7.794;2023-01-10T04:58:56;99450.16;;;3.70;100.00
53908;BME280;40469;47.998;7.794;2023-01-10T05:01:22;99459.88;;;3.80;100.00
53908;BME280;40469;47.998;7.794;2023-01-10T05:03:48;99463.59;;;3.91;100.00
53908;BME280;40469;47.998;7.794;2023-01-10T05:06:13;99463.56;;;3.90;100.00
53908;BME280;40469;47.998;7.794;2023-01-10T05:08:39;99476.09;;;3.74;100.00
53908;BME280;40469;47.998;7.794;2023-01-10T05:11:04;99483.91;;;3.77;100.00
53908;BME280;40469;47.998;7.794;2023-01-10T05:13:29;99477.19;;;3.84;100.00
53908;BME280;40469;47.998;7.794;2023-01-10T05:15:55;99484.94;;;3.84;100.00
53908;BME280;40469;47.998;7.794;2023-01-10T05:18:22;99479.81;;;3.86;100.00
53908;BME280;40469;47.998;7.794;2023-01-10T05:20:47;99479.78;;;3.84;100.00
53908;BME280;40469;47.998;7.794;2023-01-10T05:23:13;99489.38;;;3.90;100.00
53908;BME280;40469;47.998;7.794;2023-01-10T05:25:38;99477.38;;;3.90;100.00
53908;BME280;40469;47.998;7.794;2023-01-10T05:28:03;99490.28;;;3.90;100.00
53908;BME280;40469;47.998;7.794;2023-01-10T05:30:28;99483.91;;;3.77;100.00
53908;BME280;40469;47.998;7.794;2023-01-10T05:32:54;99488.06;;;3.72;100.00
53908;BME280;40469;47.998;7.794;2023-01-10T05:35:19;99486.75;;;3.87;100.00
53908;BME280;40469;47.998;7.794;2023-01-10T05:37:44;99492.41;;;3.73;100.00
53908;BME280;40469;47.998;7.794;2023-01-10T05:40:10;99494.06;;;3.70;100.00
53908;BME280;40469;47.998;7.794;2023-01-10T05:42:35;99494.00;;;3.68;100.00
53908;BME280;40469;47.998;7.794;2023-01-10T05:45:00;99498.78;;;3.86;100.00
53908;BME280;40469;47.998;7.794;2023-01-10T05:47:25;99502.28;;;3.88;100.00
53908;BME280;40469;47.998;7.794;2023-01-10T05:49:51;99506.25;;;3.75;100.00
53908;BME280;40469;47.998;7.794;2023-01-10T05:52:16;99508.72;;;3.71;100.00
53908;BME280;40469;47.998;7.794;2023-01-10T05:54:41;99521.97;;;3.85;100.00
53908;BME280;40469;47.998;7.794;2023-01-10T05:57:06;99528.50;;;3.70;100.00
53908;BME280;40469;47.998;7.794;2023-01-10T05:59:32;99535.31;;;3.68;100.00
53908;BME280;40469;47.998;7.794;2023-01-10T06:01:57;99530.28;;;3.73;100.00
53908;BME280;40469;47.998;7.794;2023-01-10T06:04:22;99534.66;;;3.75;100.00
53908;BME280;40469;47.998;7.794;2023-01-10T06:06:47;99528.28;;;3.63;100.00
53908;BME280;40469;47.998;7.794;2023-01-10T06:09:12;99528.44;;;3.69;100.00
53908;BME280;40469;47.998;7.794;2023-01-10T06:11:38;99529.28;;;3.68;100.00
53908;BME280;40469;47.998;7.794;2023-01-10T06:14:03;99534.56;;;3.71;100.00
53908;BME280;40469;47.998;7.794;2023-01-10T06:16:29;99535.56;;;3.77;100.00
53908;BME280;40469;47.998;7.794;2023-01-10T06:18:54;99532.84;;;3.71;100.00
53908;BME280;40469;47.998;7.794;2023-01-10T06:21:19;99539.09;;;3.81;100.00
53908;BME280;40469;47.998;7.794;2023-01-10T06:23:45;99548.47;;;3.76;100.00
53908;BME280;40469;47.998;7.794;2023-01-10T06:26:10;99547.06;;;3.89;100.00
53908;BME280;40469;47.998;7.794;2023-01-10T06:28:36;99555.53;;;3.83;100.00
53908;BME280;40469;47.998;7.794;2023-01-10T06:31:01;99574.44;;;3.82;100.00
53908;BME280;40469;47.998;7.794;2023-01-10T06:33:26;99579.66;;;3.84;100.00
53908;BME280;40469;47.998;7.794;2023-01-10T06:35:51;99569.38;;;3.85;100.00
53908;BME280;40469;47.998;7.794;2023-01-10T06:38:16;99578.13;;;3.90;100.00
53908;BME280;40469;47.998;7.794;2023-01-10T06:40:42;99578.97;;;3.91;100.00
53908;BME280;40469;47.998;7.794;2023-01-10T06:43:08;99585.16;;;3.96;100.00
53908;BME280;40469;47.998;7.794;2023-01-10T06:45:33;99581.38;;;3.83;100.00
53908;BME280;40469;47.998;7.794;2023-01-10T06:47:58;99598.75;;;3.89;100.00
53908;BME280;40469;47.998;7.794;2023-01-10T06:50:23;99608.59;;;3.72;100.00
53908;BME280;40469;47.998;7.794;2023-01-10T06:52:58;99618.16;;;3.74;100.00
53908;BME280;40469;47.998;7.794;2023-01-10T06:55:24;99621.75;;;3.81;100.00
53908;BME280;40469;47.998;7.794;2023-01-10T06:57:57;99624.44;;;3.84;100.00
53908;BME280;40469;47.998;7.794;2023-01-10T07:00:22;99634.91;;;3.89;100.00
53908;BME280;40469;47.998;7.794;2023-01-10T07:02:48;99640.28;;;3.96;100.00
53908;BME280;40469;47.998;7.794;2023-01-10T07:05:13;99649.56;;;3.90;100.00
53908;BME280;40469;47.998;7.794;2023-01-10T07:07:38;99647.81;;;3.89;100.00
53908;BME280;40469;47.998;7.794;2023-01-10T07:10:04;99641.06;;;3.94;100.00
53908;BME280;40469;47.998;7.794;2023-01-10T07:12:29;99641.13;;;3.97;100.00
53908;BME280;40469;47.998;7.794;2023-01-10T07:14:54;99632.13;;;3.83;100.00
53908;BME280;40469;47.998;7.794;2023-01-10T07:17:19;99636.53;;;3.85;100.00
53908;BME280;40469;47.998;7.794;2023-01-10T07:19:45;99641.06;;;3.94;100.00
53908;BME280;40469;47.998;7.794;2023-01-10T07:22:10;99635.19;;;3.99;100.00
53908;BME280;40469;47.998;7.794;2023-01-10T07:24:35;99631.03;;;4.05;100.00
53908;BME280;40469;47.998;7.794;2023-01-10T07:27:01;99634.66;;;3.79;100.00
53908;BME280;40469;47.998;7.794;2023-01-10T07:29:26;99629.84;;;3.93;100.00
53908;BME280;40469;47.998;7.794;2023-01-10T07:31:51;99640.94;;;3.89;100.00
53908;BME280;40469;47.998;7.794;2023-01-10T07:34:16;99646.97;;;3.90;100.00
53908;BME280;40469;47.998;7.794;2023-01-10T07:36:41;99648.53;;;3.85;100.00
53908;BME280;40469;47.998;7.794;2023-01-10T07:39:07;99668.34;;;3.84;100.00
53908;BME280;40469;47.998;7.794;2023-01-10T07:41:32;99670.31;;;3.93;100.00
53908;BME280;40469;47.998;7.794;2023-01-10T07:43:57;99686.72;;;3.95;100.00
53908;BME280;40469;47.998;7.794;2023-01-10T07:46:22;99697.00;;;3.92;100.00
53908;BME280;40469;47.998;7.794;2023-01-10T07:48:47;99685.25;;;4.03;100.00
53908;BME280;40469;47.998;7.794;2023-01-10T07:51:13;99689.44;;;3.99;100.00
53908;BME280;40469;47.998;7.794;2023-01-10T07:53:38;99690.00;;;3.89;100.00
53908;BME280;40469;47.998;7.794;2023-01-10T07:56:04;99689.88;;;3.85;100.00
53908;BME280;40469;47.998;7.794;2023-01-10T07:58:29;99696.44;;;4.04;100.00
53908;BME280;40469;47.998;7.794;2023-01-10T08:00:58;99701.16;;;3.87;100.00
53908;BME280;40469;47.998;7.794;2023-01-10T08:03:23;99700.31;;;3.88;100.00
53908;BME280;40469;47.998;7.794;2023-01-10T08:05:49;99696.50;;;4.05;100.00
53908;BME280;40469;47.998;7.794;2023-01-10T08:08:14;99709.16;;;3.96;100.00
53908;BME280;40469;47.998;7.794;2023-01-10T08:10:41;99702.53;;;4.06;100.00
53908;BME280;40469;47.998;7.794;2023-01-10T08:13:07;99705.91;;;4.03;100.00
53908;BME280;40469;47.998;7.794;2023-01-10T08:15:32;99711.09;;;4.03;100.00
53908;BME280;40469;47.998;7.794;2023-01-10T08:18:01;99722.53;;;4.11;100.00
53908;BME280;40469;47.998;7.794;2023-01-10T08:20:27;99733.38;;;4.30;100.00
53908;BME280;40469;47.998;7.794;2023-01-10T08:22:52;99737.53;;;4.56;100.00
53908;BME280;40469;47.998;7.794;2023-01-10T08:25:17;99729.44;;;4.44;100.00
53908;BME280;40469;47.998;7.794;2023-01-10T08:27:43;99733.28;;;4.59;100.00
53908;BME280;40469;47.998;7.794;2023-01-10T08:30:08;99728.78;;;4.51;100.00
53908;BME280;40469;47.998;7.794;2023-01-10T08:32:33;99725.06;;;4.42;100.00
53908;BME280;40469;47.998;7.794;2023-01-10T08:34:59;99726.31;;;4.56;100.00
53908;BME280;40469;47.998;7.794;2023-01-10T08:37:24;99733.84;;;4.80;100.00
53908;BME280;40469;47.998;7.794;2023-01-10T08:39:49;99722.69;;;5.18;100.00
53908;BME280;40469;47.998;7.794;2023-01-10T08:42:14;99732.97;;;5.51;100.00
53908;BME280;40469;47.998;7.794;2023-01-10T08:44:41;99729.47;;;5.49;100.00
53908;BME280;40469;47.998;7.794;2023-01-10T08:47:06;99739.66;;;5.06;100.00
53908;BME280;40469;47.998;7.794;2023-01-10T08:49:31;99745.66;;;4.70;100.00
53908;BME280;40469;47.998;7.794;2023-01-10T08:51:56;99740.50;;;5.40;100.00
53908;BME280;40469;47.998;7.794;2023-01-10T08:54:22;99751.00;;;5.46;100.00
53908;BME280;40469;47.998;7.794;2023-01-10T08:56:47;99758.34;;;5.66;100.00
53908;BME280;40469;47.998;7.794;2023-01-10T08:59:12;99760.59;;;5.52;100.00
53908;BME280;40469;47.998;7.794;2023-01-10T09:01:37;99758.94;;;5.92;100.00
53908;BME280;40469;47.998;7.794;2023-01-10T09:04:02;99763.84;;;6.18;100.00
53908;BME280;40469;47.998;7.794;2023-01-10T09:06:29;99773.50;;;6.25;100.00
53908;BME280;40469;47.998;7.794;2023-01-10T09:08:54;99773.19;;;6.11;100.00
53908;BME280;40469;47.998;7.794;2023-01-10T09:11:19;99789.41;;;6.43;100.00
53908;BME280;40469;47.998;7.794;2023-01-10T09:13:47;99789.44;;;6.45;100.00
53908;BME280;40469;47.998;7.794;2023-01-10T09:16:12;99783.22;;;6.37;100.00
53908;BME280;40469;47.998;7.794;2023-01-10T09:18:38;99798.78;;;5.96;100.00
53908;BME280;40469;47.998;7.794;2023-01-10T09:21:03;99789.22;;;5.95;100.00
53908;BME280;40469;47.998;7.794;2023-01-10T09:23:28;99791.81;;;5.57;100.00
53908;BME280;40469;47.998;7.794;2023-01-10T09:25:54;99799.50;;;5.90;100.00
53908;BME280;40469;47.998;7.794;2023-01-10T09:28:21;99800.25;;;5.48;100.00
53908;BME280;40469;47.998;7.794;2023-01-10T09:30:48;99809.47;;;5.73;100.00
53908;BME280;40469;47.998;7.794;2023-01-10T09:33:13;99803.28;;;5.68;100.00
53908;BME280;40469;47.998;7.794;2023-01-10T09:35:39;99803.84;;;5.93;100.00
53908;BME280;40469;47.998;7.794;2023-01-10T09:38:09;99812.22;;;5.79;100.00
53908;BME280;40469;47.998;7.794;2023-01-10T09:46:07;99809.13;;;6.34;100.00
53908;BME280;40469;47.998;7.794;2023-01-10T09:48:44;99811.22;;;6.97;100.00
53908;BME280;40469;47.998;7.794;2023-01-10T09:53:44;99822.28;;;7.37;100.00
53908;BME280;40469;47.998;7.794;2023-01-10T09:56:10;99818.84;;;7.38;100.00
53908;BME280;40469;47.998;7.794;2023-01-10T09:58:37;99818.31;;;7.59;100.00
53908;BME280;40469;47.998;7.794;2023-01-10T10:01:07;99815.81;;;7.14;100.00
53908;BME280;40469;47.998;7.794;2023-01-10T10:03:54;99813.78;;;6.96;100.00
53908;BME280;40469;47.998;7.794;2023-01-10T10:06:22;99819.06;;;7.02;100.00
53908;BME280;40469;47.998;7.794;2023-01-10T10:08:48;99816.50;;;7.54;100.00
53908;BME280;40469;47.998;7.794;2023-01-10T10:16:36;99827.81;;;7.56;100.00
53908;BME280;40469;47.998;7.794;2023-01-10T10:24:08;99814.28;;;7.25;100.00
53908;BME280;40469;47.998;7.794;2023-01-10T10:29:23;99810.22;;;7.39;100.00
53908;BME280;40469;47.998;7.794;2023-01-10T10:34:32;99808.63;;;7.49;100.00
53908;BME280;40469;47.998;7.794;2023-01-10T10:37:09;99812.03;;;7.45;100.00
53908;BME280;40469;47.998;7.794;2023-01-10T10:42:20;99803.16;;;7.87;100.00
53908;BME280;40469;47.998;7.794;2023-01-10T10:47:12;99797.56;;;8.24;100.00
53908;BME280;40469;47.998;7.794;2023-01-10T10:52:14;99798.34;;;8.85;100.00
53908;BME280;40469;47.998;7.794;2023-01-10T10:54:43;99806.66;;;8.53;100.00
53908;BME280;40469;47.998;7.794;2023-01-10T10:57:09;99816.38;;;7.46;100.00
53908;BME280;40469;47.998;7.794;2023-01-10T10:59:35;99803.22;;;6.87;100.00
53908;BME280;40469;47.998;7.794;2023-01-10T11:02:01;99808.91;;;6.67;100.00
53908;BME280;40469;47.998;7.794;2023-01-10T11:04:26;99815.31;;;6.86;100.00
53908;BME280;40469;47.998;7.794;2023-01-10T11:06:52;99814.00;;;7.08;100.00
53908;BME280;40469;47.998;7.794;2023-01-10T11:09:19;99812.00;;;6.49;100.00
53908;BME280;40469;47.998;7.794;2023-01-10T11:12:03;99808.03;;;6.67;100.00
53908;BME280;40469;47.998;7.794;2023-01-10T11:14:43;99810.63;;;6.67;100.00
53908;BME280;40469;47.998;7.794;2023-01-10T11:17:26;99814.53;;;6.90;100.00
53908;BME280;40469;47.998;7.794;2023-01-10T11:19:55;99800.56;;;6.39;100.00
53908;BME280;40469;47.998;7.794;2023-01-10T11:22:21;99800.13;;;6.60;100.00
53908;BME280;40469;47.998;7.794;2023-01-10T11:24:54;99811.06;;;6.90;100.00
53908;BME280;40469;47.998;7.794;2023-01-10T11:27:28;99799.19;;;7.02;100.00
53908;BME280;40469;47.998;7.794;2023-01-10T11:29:55;99803.53;;;7.57;100.00
53908;BME280;40469;47.998;7.794;2023-01-10T11:32:29;99796.59;;;7.54;100.00
53908;BME280;40469;47.998;7.794;2023-01-10T11:34:55;99785.41;;;7.60;100.00
53908;BME280;40469;47.998;7.794;2023-01-10T11:37:30;99791.19;;;7.42;100.00
53908;BME280;40469;47.998;7.794;2023-01-10T11:40:16;99780.41;;;7.17;100.00
53908;BME280;40469;47.998;7.794;2023-01-10T11:42:42;99787.16;;;7.08;100.00
53908;BME280;40469;47.998;7.794;2023-01-10T11:45:20;99774.22;;;6.63;100.00
53908;BME280;40469;47.998;7.794;2023-01-10T11:47:50;99779.28;;;6.56;100.00
53908;BME280;40469;47.998;7.794;2023-01-10T11:50:19;99780.41;;;6.70;100.00
53908;BME280;40469;47.998;7.794;2023-01-10T11:52:45;99784.63;;;6.65;100.00
53908;BME280;40469;47.998;7.794;2023-01-10T11:55:21;99782.47;;;6.87;100.00
53908;BME280;40469;47.998;7.794;2023-01-10T11:57:58;99778.72;;;6.71;100.00
53908;BME280;40469;47.998;7.794;2023-01-10T12:00:45;99760.88;;;6.43;100.00
53908;BME280;40469;47.998;7.794;2023-01-10T12:03:14;99760.94;;;6.47;100.00
53908;BME280;40469;47.998;7.794;2023-01-10T12:05:40;99760.81;;;6.86;100.00
53908;BME280;40469;47.998;7.794;2023-01-10T12:08:05;99758.69;;;7.14;100.00
53908;BME280;40469;47.998;7.794;2023-01-10T12:10:33;99741.56;;;7.25;100.00
53908;BME280;40469;47.998;7.794;2023-01-10T12:13:08;99754.31;;;7.10;100.00
53908;BME280;40469;47.998;7.794;2023-01-10T12:15:37;99746.34;;;6.99;100.00
53908;BME280;40469;47.998;7.794;2023-01-10T12:18:02;99744.09;;;6.70;100.00
53908;BME280;40469;47.998;7.794;2023-01-10T12:20:29;99738.81;;;6.66;100.00
53908;BME280;40469;47.998;7.794;2023-01-10T12:22:59;99739.94;;;6.80;100.00
53908;BME280;40469;47.998;7.794;2023-01-10T12:27:52;99733.56;;;7.13;100.00
53908;BME280;40469;47.998;7.794;2023-01-10T12:30:39;99720.53;;;7.08;100.00
53908;BME280;40469;47.998;7.794;2023-01-10T12:33:11;99727.94;;;6.85;100.00
53908;BME280;40469;47.998;7.794;2023-01-10T12:35:52;99719.84;;;7.20;100.00
53908;BME280;40469;47.998;7.794;2023-01-10T12:38:39;99716.69;;;7.39;100.00
53908;BME280;40469;47.998;7.794;2023-01-10T12:44:25;99709.81;;;7.43;100.00
53908;BME280;40469;47.998;7.794;2023-01-10T12:46:57;99703.72;;;7.43;100.00
53908;BME280;40469;47.998;7.794;2023-01-10T12:49:31;99704.63;;;7.45;100.00
53908;BME280;40469;47.998;7.794;2023-01-10T12:52:00;99696.03;;;7.49;100.00
53908;BME280;40469;47.998;7.794;2023-01-10T12:54:28;99700.19;;;7.37;100.00
53908;BME280;40469;47.998;7.794;2023-01-10T12:56:54;99698.16;;;7.18;100.00
53908;BME280;40469;47.998;7.794;2023-01-10T12:59:26;99696.53;;;7.25;100.00
53908;BME280;40469;47.998;7.794;2023-01-10T13:01:54;99689.59;;;7.25;100.00
53908;BME280;40469;47.998;7.794;2023-01-10T13:04:21;99687.59;;;7.07;100.00
53908;BME280;40469;47.998;7.794;2023-01-10T13:06:48;99681.63;;;7.13;100.00
53908;BME280;40469;47.998;7.794;2023-01-10T13:11:41;99677.63;;;7.33;100.00
53908;BME280;40469;47.998;7.794;2023-01-10T13:14:10;99673.94;;;7.19;100.00
53908;BME280;40469;47.998;7.794;2023-01-10T13:16:41;99668.63;;;7.13;100.00
53908;BME280;40469;47.998;7.794;2023-01-10T13:21:35;99662.06;;;7.35;100.00
53908;BME280;40469;47.998;7.794;2023-01-10T13:24:04;99660.28;;;7.31;100.00
53908;BME280;40469;47.998;7.794;2023-01-10T13:26:44;99660.06;;;7.17;100.00
53908;BME280;40469;47.998;7.794;2023-01-10T13:29:10;99662.94;;;7.35;100.00
53908;BME280;40469;47.998;7.794;2023-01-10T13:31:36;99645.63;;;7.36;100.00
53908;BME280;40469;47.998;7.794;2023-01-10T13:34:02;99648.09;;;7.28;100.00
53908;BME280;40469;47.998;7.794;2023-01-10T13:36:36;99644.66;;;7.29;100.00
53908;BME280;40469;47.998;7.794;2023-01-10T13:39:03;99647.19;;;7.25;100.00
53908;BME280;40469;47.998;7.794;2023-01-10T13:48:26;99634.19;;;7.25;100.00
53908;BME280;40469;47.998;7.794;2023-01-10T13:52:48;99621.22;;;7.25;100.00
53908;BME280;40469;47.998;7.794;2023-01-10T13:55:24;99613.97;;;7.03;100.00
53908;BME280;40469;47.998;7.794;2023-01-10T13:58:38;99607.94;;;7.05;100.00
53908;BME280;40469;47.998;7.794;2023-01-10T14:03:38;99620.41;;;7.30;100.00
53908;BME280;40469;47.998;7.794;2023-01-10T14:06:05;99623.88;;;7.28;100.00
53908;BME280;40469;47.998;7.794;2023-01-10T14:08:33;99621.34;;;7.35;100.00
53908;BME280;40469;47.998;7.794;2023-01-10T14:11:11;99624.50;;;7.13;100.00
53908;BME280;40469;47.998;7.794;2023-01-10T14:13:37;99617.56;;;7.10;100.00
53908;BME280;40469;47.998;7.794;2023-01-10T14:16:02;99618.56;;;7.20;100.00
53908;BME280;40469;47.998;7.794;2023-01-10T14:20:57;99630.00;;;7.33;100.00
53908;BME280;40469;47.998;7.794;2023-01-10T14:23:24;99629.25;;;7.42;100.00
53908;BME280;40469;47.998;7.794;2023-01-10T14:25:52;99629.94;;;7.30;100.00